Historie AUP a zpráv METAR Praha-Ruzyně z 12:00 UTC

Datum: 10-12-2019 / Vyber datum:
LKPR 101200Z 30013KT 9999 FEW033 05/M03 Q1023 NOSIG
Prostor Spodní hranice Horní hranice Od Do
TRA10 GND 1000FT/AGL 12:00 21:00
TRA12 1000FT/AGL 5000FT/AMSL 12:00 21:00
TRA13 GND 5000FT/AMSL 08:00 21:00
TRA14 GND F125 09:00 21:00
TRA15 300FT/AGL F125 09:00 14:00
TRA16 5000FT/AMSL F125 09:00 14:00
TRA17 GND 1000FT/AGL 09:00 14:00
TRA56 1000FT/AGL F125 08:00 17:00
TRA57 3000FT/AMSL F125 08:00 17:00
TRA61 GND 3000FT/AMSL 07:00 15:00
TRA62 3000FT/AMSL F245 07:00 15:00
TRA71 GND 1000FT/AGL 08:00 14:58
TRA72 GND 3000FT/AMSL 08:00 14:58
TRA73 GND 1000FT/AGL 08:00 14:58
TRA76 1000FT/AGL F075 08:00 21:00
TRA77 1000FT/AGL F245 08:00 21:00
TRA78 1000FT/AGL F245 08:00 21:00
TRA79 F095 F245 08:00 21:00
TSA1 GND F195 17:00 21:00
TSA2B GND F065 07:00 15:10
TSA20 300FT/AGL 1000FT/AGL 08:00 14:58
TSA26 300FT/AGL 1000FT/AGL 08:00 14:58
TSA27 300FT/AGL 1000FT/AGL 08:00 14:58
TSA3A GND F285 08:00 14:30
TSA5B GND F135 08:00 15:00